Time;durP1;ratioP1;P1;durP2;ratioP2;P2;SDS_P1;SDS_P2;PMS_P1;PMS_P2;Temp;Humidity;BMP_temperature;BMP_pressure;BME280_temperature;BME280_humidity;BME280_pressure;Samples;Min_cycle;Max_cycle;Signal;HPM_P1;HPM_P2
2023/01/19 00:01:29;;;;;;;12.60;6.25;;;;;;;6.01;59.89;100097.91;5049491;28;20041;-62
2023/01/19 00:03:58;;;;;;;10.30;5.80;;;;;;;6.01;59.91;100097.91;5044472;28;20100;-62
2023/01/19 00:06:25;;;;;;;11.02;6.13;;;;;;;6.01;60.02;100097.91;5043488;28;20068;-63
2023/01/19 00:08:53;;;;;;;12.38;6.40;;;;;;;6.01;60.09;100098.72;5046458;28;20050;-62
2023/01/19 00:11:21;;;;;;;11.90;7.60;;;;;;;6.00;59.94;100099.75;5044761;28;20056;-63
2023/01/19 00:13:49;;;;;;;7.70;6.30;;;;;;;5.99;59.70;100095.44;5046677;28;20485;-62
2023/01/19 00:16:21;;;;;;;8.50;5.95;;;;;;;6.00;59.68;100093.59;5053544;28;20053;-63
2023/01/19 00:18:51;;;;;;;9.27;6.30;;;;;;;6.01;60.06;100095.25;5044098;28;20529;-63
2023/01/19 00:21:21;;;;;;;10.73;6.60;;;;;;;5.99;59.91;100091.97;5044008;28;20108;-62
2023/01/19 00:23:51;;;;;;;7.97;5.70;;;;;;;6.00;59.94;100102.44;5038088;28;20133;-63
2023/01/19 00:26:20;;;;;;;10.10;6.70;;;;;;;5.97;59.92;100094.03;5045139;28;20068;-62
2023/01/19 00:28:49;;;;;;;11.68;6.22;;;;;;;5.99;59.97;100102.63;5051881;28;20107;-62
2023/01/19 00:31:19;;;;;;;10.95;6.75;;;;;;;5.96;59.87;100103.88;5044897;28;20053;-62
2023/01/19 00:33:48;;;;;;;9.82;6.78;;;;;;;5.98;60.20;100098.34;5053319;28;20065;-62
2023/01/19 00:36:16;;;;;;;9.48;6.63;;;;;;;5.96;60.37;100109.22;5046889;28;20076;-63
2023/01/19 00:38:45;;;;;;;10.00;6.43;;;;;;;5.96;60.12;100108.38;5049449;28;20049;-63
2023/01/19 00:41:13;;;;;;;9.07;5.80;;;;;;;5.96;60.16;100114.53;5046188;28;20056;-62
2023/01/19 00:43:39;;;;;;;9.80;6.72;;;;;;;5.95;60.44;100112.91;5043368;28;20049;-63
2023/01/19 00:46:07;;;;;;;10.35;6.25;;;;;;;5.94;60.22;100108.59;5042074;28;20084;-62
2023/01/19 00:48:35;;;;;;;10.82;6.45;;;;;;;5.93;60.24;100106.13;5042791;28;20766;-63
2023/01/19 00:51:03;;;;;;;8.40;6.05;;;;;;;5.93;60.18;100106.13;5046100;28;20061;-63
2023/01/19 00:53:31;;;;;;;8.77;6.38;;;;;;;5.93;60.38;100114.97;5044112;28;20076;-62
2023/01/19 00:56:00;;;;;;;12.93;6.28;;;;;;;5.93;59.96;100108.81;5047981;28;20073;-63
2023/01/19 00:58:28;;;;;;;9.50;6.80;;;;;;;5.91;60.44;100108.19;5044425;28;20061;-62
2023/01/19 01:01:02;;;;;;;10.40;5.90;;;;;;;5.92;60.56;100107.16;5044098;28;20455;-63
2023/01/19 01:03:30;;;;;;;10.23;6.40;;;;;;;5.91;60.47;100100.19;5039703;28;20413;-62
2023/01/19 01:05:58;;;;;;;9.68;5.97;;;;;;;5.92;60.33;100099.16;5044129;28;20072;-62
2023/01/19 01:08:25;;;;;;;11.10;6.97;;;;;;;5.90;60.29;100104.72;5044146;28;20148;-62
2023/01/19 01:10:54;;;;;;;8.85;6.00;;;;;;;5.89;60.73;100095.06;5043557;28;20121;-63
2023/01/19 01:13:24;;;;;;;9.90;7.18;;;;;;;5.88;60.46;100101.41;5041214;28;20518;-63
2023/01/19 01:15:55;;;;;;;10.77;6.55;;;;;;;5.85;60.37;100107.97;5045578;28;20110;-63
2023/01/19 01:18:23;;;;;;;10.27;6.75;;;;;;;5.88;60.25;100109.41;5047079;28;20148;-63
2023/01/19 01:20:51;;;;;;;9.88;7.47;;;;;;;5.86;60.46;100093.63;5045696;28;20057;-63
2023/01/19 01:23:22;;;;;;;11.57;7.18;;;;;;;5.86;60.40;100098.94;5043781;28;20049;-63
2023/01/19 01:25:50;;;;;;;8.32;6.20;;;;;;;5.87;60.40;100105.09;5043781;28;20124;-62
2023/01/19 01:28:17;;;;;;;10.30;6.22;;;;;;;5.85;60.71;100107.97;5049727;28;20057;-63
2023/01/19 01:30:47;;;;;;;12.82;6.82;;;;;;;5.83;60.71;100112.69;5034738;28;20082;-62
2023/01/19 01:33:14;;;;;;;10.95;7.20;;;;;;;5.84;60.60;100111.66;5044420;28;20055;-63
2023/01/19 01:36:02;;;;;;;11.10;6.45;;;;;;;5.84;60.33;100117.00;5035957;28;20079;-62
2023/01/19 01:38:30;;;;;;;7.88;5.72;;;;;;;5.83;60.78;100119.88;5048033;28;20049;-63
2023/01/19 01:40:57;;;;;;;9.43;6.78;;;;;;;5.83;60.57;100118.03;5050691;28;20063;-62
2023/01/19 01:43:42;;;;;;;10.43;6.22;;;;;;;5.82;60.25;100113.72;5043943;28;20045;-64
2023/01/19 01:46:14;;;;;;;9.43;6.18;;;;;;;5.83;60.60;100122.53;5046042;28;20109;-62
2023/01/19 01:48:46;;;;;;;11.18;6.05;;;;;;;5.83;60.47;100120.69;5043321;28;20077;-62
2023/01/19 01:51:25;;;;;;;14.45;7.50;;;;;;;5.83;60.54;100130.53;5045083;28;20047;-62
2023/01/19 01:54:06;;;;;;;10.75;5.88;;;;;;;5.83;60.63;100114.53;5042916;28;20073;-63
2023/01/19 01:56:38;;;;;;;11.05;6.18;;;;;;;5.84;60.31;100114.34;5042338;28;20041;-63
2023/01/19 01:59:09;;;;;;;11.70;6.53;;;;;;;5.83;60.52;100123.38;5049251;28;20103;-63
2023/01/19 02:04:24;;;;;;;;;;;;;;;5.81;60.55;100132.59;5032069;28;20049;-63
2023/01/19 02:15:15;;;;;;;10.02;6.15;;;;;;;5.79;60.72;100132.00;5049641;28;20049;-63
2023/01/19 02:17:45;;;;;;;10.40;5.97;;;;;;;5.80;60.70;100137.13;5040761;28;20376;-62
2023/01/19 02:20:13;;;;;;;10.02;6.20;;;;;;;5.81;60.81;100143.25;5055086;28;21690;-63
2023/01/19 02:22:47;;;;;;;12.80;5.72;;;;;;;5.82;60.56;100144.91;5046920;28;20487;-63
2023/01/19 02:25:19;;;;;;;7.20;4.70;;;;;;;5.80;60.72;100142.44;5049530;28;20080;-63
2023/01/19 02:27:48;;;;;;;10.32;5.90;;;;;;;5.79;60.97;100143.47;5042120;28;20526;-63
2023/01/19 02:30:17;;;;;;;8.73;5.03;;;;;;;5.78;60.95;100141.84;5041826;28;20056;-63
2023/01/19 02:32:45;;;;;;;7.30;4.75;;;;;;;5.79;61.10;100140.00;5043396;28;20404;-63
2023/01/19 02:35:13;;;;;;;6.85;5.18;;;;;;;5.79;61.00;100145.31;5043506;28;20076;-63
2023/01/19 02:37:43;;;;;;;9.82;5.47;;;;;;;5.81;61.12;100141.41;5051733;28;20114;-63
2023/01/19 02:40:14;;;;;;;9.40;5.20;;;;;;;5.81;60.93;100148.59;5045688;28;20081;-63
2023/01/19 02:42:45;;;;;;;10.30;5.07;;;;;;;5.78;61.30;100157.84;5038646;28;20055;-63
2023/01/19 02:45:17;;;;;;;9.02;5.35;;;;;;;5.74;61.51;100145.94;5036291;28;20064;-63
2023/01/19 02:47:48;;;;;;;11.15;5.28;;;;;;;5.77;61.26;100158.03;5041544;28;20403;-62
2023/01/19 02:50:42;;;;;;;8.68;5.22;;;;;;;5.77;61.27;100158.03;5037842;28;20041;-63
2023/01/19 02:53:23;;;;;;;11.60;6.15;;;;;;;5.78;61.17;100155.16;5037920;28;20045;-63
2023/01/19 02:55:56;;;;;;;9.57;5.57;;;;;;;5.77;61.39;100164.19;5045337;28;20069;-64
2023/01/19 02:58:33;;;;;;;11.63;6.45;;;;;;;5.76;61.56;100170.56;5054859;28;20116;-63
2023/01/19 03:01:13;;;;;;;11.50;5.43;;;;;;;5.76;61.50;100165.22;5039838;28;20091;-62
2023/01/19 03:03:51;;;;;;;13.07;6.32;;;;;;;5.76;61.50;100175.06;5043823;28;20459;-62
2023/01/19 03:06:33;;;;;;;11.18;5.47;;;;;;;5.74;61.44;100179.78;5037851;28;20052;-62
2023/01/19 03:09:04;;;;;;;8.20;5.18;;;;;;;5.74;61.38;100177.13;5050493;28;20056;-62
2023/01/19 03:11:38;;;;;;;9.60;5.15;;;;;;;5.72;61.55;100179.16;5035209;28;20140;-62
2023/01/19 03:14:11;;;;;;;9.48;5.57;;;;;;;5.71;61.63;100173.00;5042154;28;20100;-62
2023/01/19 03:16:42;;;;;;;11.13;5.43;;;;;;;5.70;61.62;100179.38;5048047;28;20052;-62
2023/01/19 03:19:18;;;;;;;11.20;5.97;;;;;;;5.67;61.40;100177.13;5042645;28;20057;-62
2023/01/19 03:21:48;;;;;;;7.45;5.15;;;;;;;5.66;61.72;100175.47;5041126;28;20109;-63
2023/01/19 03:24:19;;;;;;;8.90;5.70;;;;;;;5.66;61.88;100188.81;5039860;28;20050;-63
2023/01/19 03:26:51;;;;;;;9.20;5.82;;;;;;;5.65;62.06;100178.34;5054297;28;20045;-63
2023/01/19 03:29:22;;;;;;;9.00;5.70;;;;;;;5.64;61.59;100188.19;5047197;28;20072;-63
2023/01/19 03:31:52;;;;;;;9.25;5.35;;;;;;;5.64;61.72;100188.19;5044575;28;20079;-62
2023/01/19 03:34:22;;;;;;;8.18;5.13;;;;;;;5.62;61.88;100198.25;5044580;28;20056;-63
2023/01/19 03:36:53;;;;;;;9.73;6.60;;;;;;;5.61;61.75;100195.78;5042282;28;20121;-63
2023/01/19 03:39:24;;;;;;;8.43;5.63;;;;;;;5.61;61.71;100201.13;5043443;28;20124;-63
2023/01/19 03:41:54;;;;;;;8.35;5.88;;;;;;;5.60;61.75;100205.63;5042015;28;20061;-63
2023/01/19 03:44:27;;;;;;;11.38;5.72;;;;;;;5.61;61.77;100203.78;5035276;28;20432;-63
2023/01/19 03:46:56;;;;;;;9.27;6.43;;;;;;;5.57;61.85;100206.84;5036125;28;20052;-62
2023/01/19 03:49:24;;;;;;;8.95;6.43;;;;;;;5.60;61.96;100215.47;5044335;28;20202;-63
2023/01/19 03:51:55;;;;;;;7.78;5.07;;;;;;;5.59;61.83;100217.31;5040302;28;20144;-63
2023/01/19 03:54:23;;;;;;;6.95;5.50;;;;;;;5.56;61.75;100221.22;5046483;28;20100;-63
2023/01/19 03:56:51;;;;;;;8.40;5.78;;;;;;;5.55;61.76;100219.56;5041310;28;20049;-63
2023/01/19 03:59:20;;;;;;;7.38;5.30;;;;;;;5.56;62.02;100228.38;5046712;28;20148;-63
2023/01/19 04:01:49;;;;;;;8.73;5.00;;;;;;;5.54;61.69;100227.75;5042465;28;20171;-63
2023/01/19 04:04:17;;;;;;;6.75;4.78;;;;;;;5.51;62.09;100229.00;5036034;28;20049;-63
2023/01/19 04:06:45;;;;;;;6.70;5.13;;;;;;;5.50;62.31;100229.19;5043790;28;20050;-63
2023/01/19 04:09:13;;;;;;;7.15;4.80;;;;;;;5.48;61.83;100245.38;5042364;28;20045;-63
2023/01/19 04:11:40;;;;;;;7.22;4.72;;;;;;;5.47;62.24;100246.41;5040168;28;20308;-63
2023/01/19 04:14:08;;;;;;;6.45;4.55;;;;;;;5.45;62.31;100248.47;5043669;28;20095;-63
2023/01/19 04:16:36;;;;;;;6.38;4.18;;;;;;;5.44;61.94;100249.47;5044271;28;20062;-63
2023/01/19 04:19:05;;;;;;;5.28;4.00;;;;;;;5.43;62.27;100245.19;5043810;28;20045;-63
2023/01/19 04:21:33;;;;;;;5.85;4.00;;;;;;;5.44;62.29;100249.47;5039352;28;20065;-63
2023/01/19 04:24:01;;;;;;;4.75;3.80;;;;;;;5.44;62.42;100251.31;5064144;28;20063;-63
2023/01/19 04:26:29;;;;;;;5.85;4.20;;;;;;;5.42;62.28;100262.19;5043978;28;20040;-63
2023/01/19 04:28:57;;;;;;;5.15;3.35;;;;;;;5.39;62.50;100259.94;5051439;28;20052;-63
2023/01/19 04:31:26;;;;;;;5.53;3.85;;;;;;;5.39;62.40;100275.09;5044810;28;20059;-62
2023/01/19 04:33:55;;;;;;;3.97;3.20;;;;;;;5.38;61.95;100273.47;5041384;28;20076;-63
2023/01/19 04:36:24;;;;;;;3.78;3.20;;;;;;;5.39;62.57;100275.91;5043980;28;20153;-63
2023/01/19 04:38:52;;;;;;;4.13;3.17;;;;;;;5.37;62.50;100275.28;5047584;28;20425;-63
2023/01/19 04:41:20;;;;;;;5.47;3.80;;;;;;;5.37;62.51;100277.13;5043496;28;20056;-62
2023/01/19 04:43:48;;;;;;;4.90;3.63;;;;;;;5.37;62.19;100282.47;5044961;28;20079;-62
2023/01/19 04:46:16;;;;;;;4.45;3.42;;;;;;;5.35;62.64;100274.69;5043618;28;20049;-62
2023/01/19 04:48:43;;;;;;;4.32;3.30;;;;;;;5.36;62.75;100289.63;5044444;28;20049;-62
2023/01/19 04:51:11;;;;;;;3.95;3.03;;;;;;;5.34;62.39;100278.38;5051104;28;20068;-63
2023/01/19 04:53:40;;;;;;;4.05;2.80;;;;;;;5.33;62.33;100284.72;5049997;28;20072;-63
2023/01/19 04:56:08;;;;;;;3.75;2.97;;;;;;;5.35;62.11;100279.19;5034694;28;20132;-63
2023/01/19 04:58:36;;;;;;;4.50;3.20;;;;;;;5.34;62.47;100283.69;5046078;28;20049;-63
2023/01/19 05:01:07;;;;;;;3.50;2.63;;;;;;;5.32;62.70;100290.25;5039667;28;20072;-63
2023/01/19 05:03:35;;;;;;;4.00;3.30;;;;;;;5.32;62.42;100287.59;5039737;28;20053;-63
2023/01/19 05:06:03;;;;;;;3.58;2.83;;;;;;;5.31;62.54;100280.63;5042982;28;20124;-62
2023/01/19 05:08:31;;;;;;;4.55;3.35;;;;;;;5.29;62.82;100277.31;5037680;28;20064;-63
2023/01/19 05:11:00;;;;;;;4.10;3.15;;;;;;;5.30;62.95;100274.47;5042774;28;20521;-63
2023/01/19 05:13:28;;;;;;;4.03;3.15;;;;;;;5.28;62.24;100267.69;5044477;28;20042;-63
2023/01/19 05:15:55;;;;;;;5.25;3.10;;;;;;;5.27;62.39;100250.88;5043994;28;20042;-63
2023/01/19 05:18:23;;;;;;;3.83;3.03;;;;;;;5.27;62.45;100240.22;5050233;28;20053;-62
2023/01/19 05:20:51;;;;;;;5.28;3.75;;;;;;;5.27;62.61;100232.25;5048162;28;20057;-62
2023/01/19 05:23:18;;;;;;;4.78;3.55;;;;;;;5.29;63.05;100237.38;5043793;28;20051;-62
2023/01/19 05:25:46;;;;;;;5.50;3.05;;;;;;;5.31;62.59;100230.00;5036379;28;20045;-63
2023/01/19 05:28:15;;;;;;;4.65;3.17;;;;;;;5.31;62.81;100222.00;5042134;28;20050;-62
2023/01/19 05:30:43;;;;;;;4.85;3.50;;;;;;;5.32;62.93;100232.44;5038227;28;20113;-62
2023/01/19 05:33:11;;;;;;;4.72;3.42;;;;;;;5.33;62.56;100234.09;5043478;28;20053;-63
2023/01/19 05:35:39;;;;;;;5.13;2.90;;;;;;;5.33;62.69;100236.75;5034270;28;20044;-62
2023/01/19 05:38:06;;;;;;;5.93;3.67;;;;;;;5.34;62.78;100272.22;5041366;28;20052;-62
2023/01/19 05:40:34;;;;;;;4.65;3.40;;;;;;;5.33;63.00;100273.25;5042778;28;20100;-62
2023/01/19 05:43:03;;;;;;;5.00;3.47;;;;;;;5.33;62.61;100283.91;5048013;28;20050;-62
2023/01/19 05:45:33;;;;;;;4.90;3.47;;;;;;;5.35;62.88;100289.84;5040955;28;20053;-62
2023/01/19 05:48:01;;;;;;;5.90;3.90;;;;;;;5.34;62.84;100288.19;5041908;28;20068;-62
2023/01/19 05:50:29;;;;;;;4.72;3.72;;;;;;;5.31;62.53;100292.09;5045838;28;20645;-62
2023/01/19 05:52:57;;;;;;;4.57;3.22;;;;;;;5.27;62.78;100274.88;5040951;28;20459;-62
2023/01/19 05:55:26;;;;;;;6.25;3.20;;;;;;;5.31;62.93;100286.75;5040017;28;20042;-62
2023/01/19 05:57:54;;;;;;;5.57;3.83;;;;;;;5.31;62.57;100278.78;5043817;28;20041;-62
2023/01/19 06:00:22;;;;;;;5.60;3.30;;;;;;;5.30;62.93;100279.78;5041514;28;20049;-62
2023/01/19 06:02:51;;;;;;;4.10;3.35;;;;;;;5.34;62.62;100269.56;5044845;28;20152;-63
2023/01/19 06:05:19;;;;;;;4.97;3.78;;;;;;;5.48;62.26;100258.72;5040545;28;20069;-64
2023/01/19 06:07:46;;;;;;;4.93;3.28;;;;;;;5.62;61.82;100266.72;5042727;28;20124;-62
2023/01/19 06:10:14;;;;;;;5.60;3.50;;;;;;;5.80;61.57;100270.44;5040656;28;20136;-61
2023/01/19 06:12:42;;;;;;;4.63;3.45;;;;;;;5.95;60.94;100270.25;5044420;28;20068;-62
2023/01/19 06:15:11;;;;;;;4.32;2.75;;;;;;;6.12;60.25;100276.00;5046737;28;20073;-65
2023/01/19 06:17:39;;;;;;;4.90;3.38;;;;;;;6.29;59.78;100277.19;5044641;28;20125;-63
2023/01/19 06:20:09;;;;;;;6.65;2.88;;;;;;;6.43;59.24;100268.13;5032480;28;20081;-71
2023/01/19 06:22:37;;;;;;;5.57;3.10;;;;;;;6.58;58.97;100286.59;5042979;28;20045;-61
2023/01/19 06:25:06;;;;;;;6.82;3.63;;;;;;;6.53;58.75;100279.22;5042869;28;20236;-62
2023/01/19 06:27:33;;;;;;;5.32;3.00;;;;;;;6.47;58.91;100290.72;5042022;28;20140;-62
2023/01/19 06:30:01;;;;;;;5.75;3.05;;;;;;;6.31;59.62;100282.34;5041822;28;20125;-63
2023/01/19 06:32:29;;;;;;;4.15;3.20;;;;;;;6.17;60.08;100302.88;5047370;28;20129;-61
2023/01/19 06:34:57;;;;;;;7.10;3.67;;;;;;;6.05;60.38;100317.84;5051500;28;20053;-62
2023/01/19 06:37:27;;;;;;;5.55;3.03;;;;;;;5.95;60.69;100318.25;5049340;28;20079;-61
2023/01/19 06:39:55;;;;;;;5.82;3.33;;;;;;;5.86;60.90;100320.28;4696196;28;9999842;-62
2023/01/19 06:42:22;;;;;;;4.97;3.65;;;;;;;5.80;61.38;100313.09;5036311;28;20057;-66
2023/01/19 06:44:50;;;;;;;4.97;3.45;;;;;;;5.76;61.59;100324.38;5048483;28;20067;-65
2023/01/19 06:47:18;;;;;;;6.60;3.95;;;;;;;5.72;61.54;100325.78;5038602;28;20061;-65
2023/01/19 06:49:46;;;;;;;4.80;3.45;;;;;;;5.66;61.87;100330.09;5034765;28;20053;-66
2023/01/19 06:52:16;;;;;;;5.78;3.75;;;;;;;5.64;62.06;100336.66;5050086;28;20053;-64
2023/01/19 06:54:45;;;;;;;7.53;3.88;;;;;;;5.63;61.88;100340.34;5042721;28;20046;-66
2023/01/19 06:57:14;;;;;;;7.03;4.03;;;;;;;5.59;61.85;100350.59;5036463;28;20081;-73
2023/01/19 06:59:41;;;;;;;6.93;4.32;;;;;;;5.56;62.38;100348.31;5037621;28;20399;-66
2023/01/19 07:02:11;;;;;;;6.43;4.00;;;;;;;5.54;62.33;100353.84;5049079;28;20091;-66
2023/01/19 07:04:54;;;;;;;8.77;4.10;;;;;;;5.50;62.38;100343.78;5040532;28;20053;-66
2023/01/19 07:07:22;;;;;;;5.75;4.25;;;;;;;5.49;62.34;100348.31;5044659;28;20460;-65
2023/01/19 07:09:51;;;;;;;7.15;4.80;;;;;;;5.48;62.34;100357.31;5040555;28;20045;-72
2023/01/19 07:12:20;;;;;;;5.85;3.80;;;;;;;5.47;62.28;100357.53;5041389;28;20107;-65
2023/01/19 07:14:49;;;;;;;7.72;4.65;;;;;;;5.40;62.72;100348.69;5052106;28;20069;-67
2023/01/19 07:17:17;;;;;;;7.80;4.43;;;;;;;5.38;63.10;100342.72;5054803;28;20063;-67
2023/01/19 07:19:45;;;;;;;6.45;4.43;;;;;;;5.39;62.89;100331.06;5037086;28;20049;-66
2023/01/19 07:22:13;;;;;;;6.05;4.10;;;;;;;5.43;62.46;100342.97;5045975;28;20384;-67
2023/01/19 07:24:40;;;;;;;7.47;4.53;;;;;;;5.43;62.88;100351.78;5033463;28;20368;-67
2023/01/19 07:27:10;;;;;;;8.40;5.07;;;;;;;5.36;62.72;100345.59;5052585;28;20072;-66
2023/01/19 07:29:38;;;;;;;6.13;4.35;;;;;;;5.40;62.75;100354.00;5041292;28;20046;-67
2023/01/19 07:32:06;;;;;;;10.68;5.22;;;;;;;5.39;62.67;100379.00;5057513;28;20538;-67
2023/01/19 07:34:35;;;;;;;7.93;5.47;;;;;;;5.37;62.73;100375.72;5041842;28;20053;-67
2023/01/19 07:37:03;;;;;;;8.32;5.00;;;;;;;5.32;63.41;100386.16;5043020;28;20088;-65
2023/01/19 07:39:31;;;;;;;8.95;5.53;;;;;;;5.32;63.43;100384.31;5040221;28;20037;-65
2023/01/19 07:41:59;;;;;;;9.57;5.53;;;;;;;5.35;63.99;100383.91;5041153;28;20050;-65
2023/01/19 07:44:28;;;;;;;11.50;5.57;;;;;;;5.35;63.63;100386.59;5047297;28;20109;-66
2023/01/19 07:46:55;;;;;;;9.90;5.15;;;;;;;5.34;63.64;100389.44;5043123;28;20125;-66
2023/01/19 07:49:24;;;;;;;14.63;6.28;;;;;;;5.34;63.57;100400.09;5040021;28;20461;-66
2023/01/19 07:51:52;;;;;;;11.88;6.43;;;;;;;5.34;63.87;100406.25;5045514;28;20116;-66
2023/01/19 07:54:20;;;;;;;10.93;6.53;;;;;;;5.32;63.80;100410.97;5042788;28;20110;-66
2023/01/19 07:56:47;;;;;;;9.68;6.60;;;;;;;5.33;63.51;100409.13;5047214;28;20076;-65
2023/01/19 07:59:15;;;;;;;12.55;6.97;;;;;;;5.32;63.90;100410.13;5044855;28;20388;-66
2023/01/19 08:01:44;;;;;;;10.55;7.10;;;;;;;5.31;63.94;100408.50;5046206;28;20061;-66
2023/01/19 08:04:13;;;;;;;11.23;7.18;;;;;;;5.31;63.89;100411.16;5045428;28;20041;-66
2023/01/19 08:06:45;;;;;;;14.50;7.32;;;;;;;5.32;63.85;100410.13;5043821;28;20033;-66
2023/01/19 08:09:13;;;;;;;14.43;9.38;;;;;;;5.30;63.68;100412.19;5045034;28;20048;-66
2023/01/19 08:11:40;;;;;;;14.50;8.27;;;;;;;5.31;64.10;100417.31;5044664;28;20053;-65
2023/01/19 08:14:08;;;;;;;15.98;6.93;;;;;;;5.29;63.82;100416.69;5050777;28;20049;-65
2023/01/19 08:16:36;;;;;;;16.90;8.82;;;;;;;5.30;63.48;100422.84;5044829;28;20151;-65
2023/01/19 08:19:05;;;;;;;16.60;9.27;;;;;;;5.32;63.52;100418.97;5045327;28;20042;-66
2023/01/19 08:21:34;;;;;;;15.95;8.68;;;;;;;5.30;63.81;100431.66;5044787;28;20077;-66
2023/01/19 08:24:02;;;;;;;19.75;9.38;;;;;;;5.29;63.52;100437.19;5044580;28;20089;-66
2023/01/19 08:26:31;;;;;;;17.58;9.18;;;;;;;5.30;63.69;100436.16;5044570;28;20103;-66
2023/01/19 08:29:01;;;;;;;13.57;9.25;;;;;;;5.26;63.60;100433.06;5045109;28;20117;-65
2023/01/19 08:31:30;;;;;;;16.98;9.30;;;;;;;5.28;63.90;100444.34;5053077;28;20534;-67
2023/01/19 08:33:57;;;;;;;16.60;10.40;;;;;;;5.30;63.53;100450.31;5044699;28;20128;-64
2023/01/19 08:36:27;;;;;;;14.70;8.73;;;;;;;5.29;63.66;100451.31;5041825;28;20709;-68
2023/01/19 08:38:54;;;;;;;18.40;9.70;;;;;;;5.31;63.98;100459.13;5047371;28;20093;-68
2023/01/19 08:41:22;;;;;;;17.60;9.00;;;;;;;5.29;63.98;100461.16;5044838;28;20046;-66
2023/01/19 08:43:50;;;;;;;20.60;9.38;;;;;;;5.28;63.83;100468.31;5044717;28;20048;-63
2023/01/19 08:46:20;;;;;;;16.05;10.20;;;;;;;5.30;64.18;100473.47;5044427;28;20053;-66
2023/01/19 08:48:49;;;;;;;21.25;10.48;;;;;;;5.28;63.68;100478.16;5040369;28;20072;-67
2023/01/19 08:51:17;;;;;;;23.00;10.60;;;;;;;5.28;63.74;100483.50;5045076;28;20060;-66
2023/01/19 08:53:47;;;;;;;17.65;10.00;;;;;;;5.27;64.14;100481.84;5049160;28;20429;-67
2023/01/19 08:56:14;;;;;;;17.17;9.95;;;;;;;5.29;63.81;100487.81;5056356;28;20132;-67
2023/01/19 08:58:44;;;;;;;20.30;11.32;;;;;;;5.28;63.80;100491.47;5043432;28;20570;-68
2023/01/19 09:01:17;;;;;;;17.95;10.52;;;;;;;5.27;63.72;100492.50;5039964;28;20067;-68
2023/01/19 09:03:45;;;;;;;21.50;11.02;;;;;;;5.32;63.65;100485.56;5042326;28;20128;-68
2023/01/19 09:06:15;;;;;;;21.92;11.18;;;;;;;5.52;63.23;100494.50;5055636;28;20284;-67
2023/01/19 09:08:43;;;;;;;18.15;10.82;;;;;;;5.68;62.49;100504.00;5060898;28;20041;-66
2023/01/19 09:11:16;;;;;;;18.75;9.98;;;;;;;5.84;61.70;100493.00;5043600;28;20119;-65
2023/01/19 09:13:44;;;;;;;21.92;11.25;;;;;;;5.90;61.70;100493.25;5043374;28;20388;-65
2023/01/19 09:16:14;;;;;;;24.13;12.63;;;;;;;6.07;61.33;100497.19;5042945;28;20041;-65
2023/01/19 09:18:42;;;;;;;19.65;10.32;;;;;;;6.20;60.62;100494.56;5039718;28;20565;-64
2023/01/19 09:21:10;;;;;;;17.55;9.85;;;;;;;6.39;60.05;100499.13;5048980;28;20045;-65
2023/01/19 09:23:38;;;;;;;20.40;10.85;;;;;;;6.60;59.82;100499.97;5037042;28;20072;-64
2023/01/19 09:26:06;;;;;;;19.80;10.15;;;;;;;6.75;58.87;100504.09;5052061;28;20458;-65
2023/01/19 09:28:36;;;;;;;22.65;10.75;;;;;;;6.88;59.02;100508.59;5042047;28;20069;-70
2023/01/19 09:31:06;;;;;;;20.83;11.25;;;;;;;7.02;57.79;100502.19;5036568;28;20083;-63
2023/01/19 09:33:34;;;;;;;21.55;10.57;;;;;;;7.10;58.13;100498.50;5036343;28;20049;-65
2023/01/19 09:36:02;;;;;;;17.63;10.88;;;;;;;7.23;57.54;100503.81;5045930;28;20051;-65
2023/01/19 09:38:31;;;;;;;17.83;10.15;;;;;;;7.20;57.61;100490.88;5045228;28;20045;-65
2023/01/19 09:41:00;;;;;;;19.73;10.52;;;;;;;7.02;57.95;100493.34;5044968;28;20044;-64
2023/01/19 09:43:39;;;;;;;21.23;9.55;;;;;;;7.08;58.03;100509.38;5041878;28;20041;-64
2023/01/19 09:46:14;;;;;;;19.17;9.70;;;;;;;7.12;57.74;100510.63;5033318;28;20073;-64
2023/01/19 09:48:47;;;;;;;21.58;9.77;;;;;;;7.19;57.66;100514.09;5045562;28;20046;-65
2023/01/19 09:51:19;;;;;;;19.02;9.70;;;;;;;7.25;57.78;100516.97;5053943;28;20513;-62
2023/01/19 09:54:02;;;;;;;17.20;10.15;;;;;;;7.31;57.35;100522.31;5051275;28;20159;-64
2023/01/19 09:56:31;;;;;;;17.67;10.15;;;;;;;7.38;57.70;100519.63;5029651;28;20207;-64
2023/01/19 09:59:01;;;;;;;16.88;8.82;;;;;;;7.41;56.85;100527.22;5043191;28;20152;-65
2023/01/19 10:01:45;;;;;;;15.77;9.65;;;;;;;7.47;57.27;100523.72;5049051;28;20040;-65
2023/01/19 10:04:40;;;;;;;19.48;9.68;;;;;;;7.52;56.42;100526.56;5048476;28;20045;-65
2023/01/19 10:07:19;;;;;;;13.90;8.55;;;;;;;7.54;57.40;100531.72;5034412;28;20128;-66
2023/01/19 10:10:02;;;;;;;18.52;9.15;;;;;;;7.54;56.79;100540.56;5039199;28;20080;-65
2023/01/19 10:12:43;;;;;;;17.55;9.07;;;;;;;7.56;56.73;100535.81;5047414;28;20053;-64
2023/01/19 10:15:26;;;;;;;19.02;9.15;;;;;;;7.56;57.32;100537.69;5042601;28;20077;-65
2023/01/19 10:18:08;;;;;;;18.23;9.80;;;;;;;7.55;57.28;100534.19;5043503;28;20049;-64
2023/01/19 10:20:40;;;;;;;21.20;9.75;;;;;;;7.47;56.95;100534.41;5044816;28;20056;-63
2023/01/19 10:23:21;;;;;;;18.88;8.40;;;;;;;7.33;57.23;100538.97;5033494;28;20132;-63
2023/01/19 10:25:49;;;;;;;17.33;8.95;;;;;;;7.22;58.29;100539.59;5034070;28;20057;-64
2023/01/19 10:28:22;;;;;;;14.18;7.88;;;;;;;7.21;57.58;100539.78;5034004;28;20077;-63
2023/01/19 10:30:54;;;;;;;18.73;8.07;;;;;;;7.07;58.61;100531.78;5033434;28;20045;-63
2023/01/19 10:33:22;;;;;;;16.05;8.85;;;;;;;7.02;58.07;100550.28;5052491;28;20046;-63
2023/01/19 10:35:50;;;;;;;16.58;9.32;;;;;;;6.87;59.00;100551.56;5036861;28;20054;-63
2023/01/19 10:38:20;;;;;;;14.13;8.65;;;;;;;6.75;59.62;100551.34;5032261;28;20052;-64
2023/01/19 10:40:57;;;;;;;15.60;8.13;;;;;;;6.64;60.00;100555.44;5034056;28;20113;-63
2023/01/19 10:43:43;;;;;;;13.52;9.02;;;;;;;6.76;59.73;100547.63;5035990;28;20045;-63
2023/01/19 10:46:20;;;;;;;19.88;8.50;;;;;;;6.89;58.86;100549.50;5035469;28;20385;-63
2023/01/19 10:48:50;;;;;;;18.88;8.68;;;;;;;7.04;58.73;100547.41;5039436;28;20208;-64
2023/01/19 10:51:19;;;;;;;16.30;9.02;;;;;;;7.17;58.60;100547.41;5035002;28;20120;-64
2023/01/19 10:53:56;;;;;;;15.23;8.82;;;;;;;7.32;58.17;100547.19;5036255;28;20268;-64
2023/01/19 10:56:24;;;;;;;;;;;;;;;7.37;57.62;100540.19;5037503;28;20458;-64
2023/01/19 10:58:52;;;;;;;15.27;8.23;;;;;;;7.20;57.97;100544.31;5035115;28;19925;-64
2023/01/19 11:01:22;;;;;;;16.63;8.88;;;;;;;7.07;58.48;100555.00;5037775;28;20046;-63
2023/01/19 11:03:52;;;;;;;19.05;9.63;;;;;;;6.89;58.63;100558.34;5033175;28;20062;-63
2023/01/19 11:06:25;;;;;;;20.60;10.32;;;;;;;6.69;59.85;100554.81;5038429;28;20075;-63
2023/01/19 11:09:09;;;;;;;15.82;8.68;;;;;;;6.57;59.94;100551.09;5035599;28;20046;-65
2023/01/19 11:11:43;;;;;;;14.40;8.85;;;;;;;6.47;60.26;100557.66;5035909;28;20045;-64
2023/01/19 11:14:12;;;;;;;22.33;8.57;;;;;;;6.38;60.78;100563.38;5033673;28;20080;-63
2023/01/19 11:16:47;;;;;;;16.25;9.30;;;;;;;6.31;61.43;100559.88;5037563;28;20124;-64
2023/01/19 11:19:20;;;;;;;16.98;7.68;;;;;;;6.26;61.66;100560.47;5043801;28;20076;-65
2023/01/19 11:21:48;;;;;;;16.67;8.07;;;;;;;6.22;61.72;100564.56;5042144;28;20133;-64
2023/01/19 11:24:16;;;;;;;21.38;9.20;;;;;;;6.20;61.74;100558.59;5043447;28;20054;-65
2023/01/19 11:26:46;;;;;;;18.00;8.30;;;;;;;6.14;61.91;100562.91;5047426;28;20463;-65
2023/01/19 11:29:17;;;;;;;20.42;9.20;;;;;;;6.10;61.77;100553.66;5042170;28;20045;-65
2023/01/19 11:31:47;;;;;;;18.80;8.52;;;;;;;6.02;62.13;100550.31;5046214;28;20056;-65
2023/01/19 11:34:31;;;;;;;17.02;9.13;;;;;;;6.00;62.57;100547.03;5046353;28;20054;-65
2023/01/19 11:37:01;;;;;;;18.70;9.00;;;;;;;5.99;62.59;100553.41;5037248;28;20049;-65
2023/01/19 11:39:30;;;;;;;16.35;8.10;;;;;;;5.95;62.79;100550.31;5045118;28;20081;-65
2023/01/19 11:42:01;;;;;;;18.90;7.88;;;;;;;5.93;62.53;100549.69;5047748;28;20047;-65
2023/01/19 11:44:32;;;;;;;14.38;7.50;;;;;;;5.90;62.88;100552.75;5041236;28;20071;-65
2023/01/19 11:47:04;;;;;;;18.85;7.80;;;;;;;5.86;62.93;100546.94;5045638;28;20057;-65
2023/01/19 11:49:40;;;;;;;18.85;7.30;;;;;;;5.90;63.17;100551.91;5054220;28;20105;-65
2023/01/19 11:52:19;;;;;;;19.20;8.18;;;;;;;5.87;63.27;100551.25;5043585;28;20172;-65
2023/01/19 11:54:54;;;;;;;12.38;6.70;;;;;;;5.86;63.34;100554.13;5045768;28;20053;-65